createdAt,value
2019-03-20T00:01:17.283Z,102941.13
2019-03-20T00:03:47.051Z,102947.83
2019-03-20T00:06:16.796Z,102945.81
2019-03-20T00:08:46.580Z,102939.50
2019-03-20T00:11:16.361Z,102945.81
2019-03-20T00:13:46.157Z,102944.78
2019-03-20T00:16:16.125Z,102947.27
2019-03-20T00:18:45.841Z,102953.47
2019-03-20T00:21:15.541Z,102959.55
2019-03-20T00:23:47.025Z,102960.84
2019-03-20T00:26:16.735Z,102968.34
2019-03-20T00:28:46.435Z,102961.71
2019-03-20T00:31:16.097Z,102967.70
2019-03-20T00:33:45.933Z,102961.19
2019-03-20T00:36:15.669Z,102962.80
2019-03-20T00:38:48.460Z,102965.02
2019-03-20T00:41:18.164Z,102963.77
2019-03-20T00:43:48.234Z,102970.05
2019-03-20T00:46:17.992Z,102967.59
2019-03-20T00:48:47.698Z,102965.58
2019-03-20T00:51:17.639Z,102975.23
2019-03-20T00:53:47.783Z,102969.94
2019-03-20T00:56:17.678Z,102966.34
2019-03-20T00:58:47.341Z,102970.70
2019-03-20T01:01:17.141Z,102977.89
2019-03-20T01:03:46.883Z,102973.20
2019-03-20T01:06:16.653Z,102978.48
2019-03-20T01:08:46.399Z,102974.52
2019-03-20T01:11:16.243Z,102981.63
2019-03-20T01:13:46.620Z,102975.61
2019-03-20T01:16:16.397Z,102979.88
2019-03-20T01:18:46.083Z,102968.38
2019-03-20T01:21:15.832Z,102955.97
2019-03-20T01:23:45.688Z,102959.77
2019-03-20T01:26:15.572Z,102958.73
2019-03-20T01:28:45.345Z,102963.39
2019-03-20T01:31:15.203Z,102971.64
2019-03-20T01:33:45.008Z,102974.22
2019-03-20T01:36:14.763Z,102970.78
2019-03-20T01:38:44.453Z,102975.73
2019-03-20T01:41:14.270Z,102971.14
2019-03-20T01:43:44.011Z,102971.27
2019-03-20T01:46:13.694Z,102978.07
2019-03-20T01:48:43.403Z,102977.74
2019-03-20T01:51:21.497Z,102978.13
2019-03-20T01:53:51.216Z,102975.58
2019-03-20T01:56:21.006Z,102972.75
2019-03-20T01:58:50.768Z,102976.47
2019-03-20T02:01:20.448Z,102971.19
2019-03-20T02:03:50.219Z,102965.91
2019-03-20T02:06:20.015Z,102960.98
2019-03-20T02:08:49.781Z,102971.05
2019-03-20T02:11:19.552Z,102978.73
2019-03-20T02:13:49.258Z,102973.39
2019-03-20T02:16:19.071Z,102969.73
2019-03-20T02:18:48.742Z,102972.07
2019-03-20T02:21:18.427Z,102984.34
2019-03-20T02:23:48.179Z,102989.63
2019-03-20T02:26:17.976Z,102989.23
2019-03-20T02:28:47.723Z,102984.83
2019-03-20T02:31:17.426Z,102981.38
2019-03-20T02:33:47.354Z,102977.86
2019-03-20T02:36:17.189Z,102977.94
2019-03-20T02:38:46.944Z,102973.65
2019-03-20T02:41:16.698Z,102975.06
2019-03-20T02:43:46.391Z,102974.23
2019-03-20T02:46:16.133Z,102966.51
2019-03-20T02:48:45.891Z,102976.43
2019-03-20T02:51:15.647Z,102966.51
2019-03-20T02:53:45.378Z,102968.32
2019-03-20T02:56:15.076Z,102967.05
2019-03-20T02:58:44.829Z,102963.23
2019-03-20T03:01:14.691Z,102964.25
2019-03-20T03:03:44.450Z,102963.62
2019-03-20T03:06:14.594Z,102969.83
2019-03-20T03:08:44.337Z,102967.58
2019-03-20T03:11:14.046Z,102974.72
2019-03-20T03:13:43.791Z,102979.31
2019-03-20T03:16:13.675Z,102978.44
2019-03-20T03:18:43.456Z,102974.72
2019-03-20T03:21:13.201Z,102967.94
2019-03-20T03:23:43.038Z,102966.70
2019-03-20T03:26:12.872Z,102973.16
2019-03-20T03:28:42.610Z,102972.41
2019-03-20T03:31:12.389Z,102985.91
2019-03-20T03:33:42.128Z,102988.98
2019-03-20T03:36:21.218Z,102983.36
2019-03-20T03:38:43.289Z,102975.30
2019-03-20T03:41:12.965Z,102985.55
2019-03-20T03:43:42.906Z,102979.64
2019-03-20T03:46:12.654Z,102974.61
2019-03-20T03:48:42.432Z,102980.13
2019-03-20T03:51:12.316Z,102981.45
2019-03-20T03:53:42.068Z,102985.78
2019-03-20T03:56:11.920Z,102981.45
2019-03-20T03:58:41.564Z,102980.51
2019-03-20T04:01:11.355Z,102983.64
2019-03-20T04:03:41.150Z,102983.83
2019-03-20T04:06:10.800Z,102987.73
2019-03-20T04:08:40.634Z,102982.46
2019-03-20T04:11:10.474Z,102983.83
2019-03-20T04:13:40.263Z,102986.47
2019-03-20T04:16:10.032Z,102984.84
2019-03-20T04:18:39.943Z,102981.72
2019-03-20T04:21:09.603Z,102985.78
2019-03-20T04:23:39.335Z,102984.95
2019-03-20T04:26:09.047Z,102982.46
2019-03-20T04:28:38.975Z,102988.75
2019-03-20T04:31:08.665Z,102987.36
2019-03-20T04:33:38.435Z,102991.12
2019-03-20T04:36:08.255Z,102989.86
2019-03-20T04:38:37.993Z,102989.56
2019-03-20T04:41:07.769Z,102993.03
2019-03-20T04:43:37.953Z,102993.66
2019-03-20T04:46:07.631Z,102987.37
2019-03-20T04:48:37.355Z,102991.96
2019-03-20T04:51:07.133Z,102992.65
2019-03-20T04:53:36.943Z,102988.61
2019-03-20T04:56:06.767Z,102988.25
2019-03-20T04:58:36.432Z,102991.05
2019-03-20T05:01:06.460Z,102982.53
2019-03-20T05:03:36.116Z,102988.61
2019-03-20T05:06:05.875Z,102991.88
2019-03-20T05:08:35.558Z,102995.53
2019-03-20T05:11:05.255Z,102993.83
2019-03-20T05:13:34.969Z,102994.38
2019-03-20T05:16:04.837Z,102989.05
2019-03-20T05:18:34.665Z,102994.12
2019-03-20T05:21:04.430Z,102999.66
2019-03-20T05:23:34.247Z,102997.34
2019-03-20T05:26:04.086Z,102993.98
2019-03-20T05:28:33.781Z,102999.02
2019-03-20T05:31:03.604Z,102996.52
2019-03-20T05:33:33.366Z,103000.91
2019-03-20T05:36:03.193Z,103005.67
2019-03-20T05:38:32.939Z,103006.10
2019-03-20T05:41:02.761Z,103019.55
2019-03-20T05:43:32.563Z,103023.84
2019-03-20T05:46:02.257Z,103020.75
2019-03-20T05:48:31.935Z,103018.22
2019-03-20T05:51:01.739Z,103024.86
2019-03-20T05:53:31.521Z,103027.83
2019-03-20T05:56:01.321Z,103030.37
2019-03-20T05:58:31.208Z,103033.98
2019-03-20T06:01:00.969Z,103043.83
2019-03-20T06:03:31.244Z,103041.98
2019-03-20T06:06:01.240Z,103053.29
2019-03-20T06:08:31.372Z,103055.34
2019-03-20T06:11:01.354Z,103056.75
2019-03-20T06:13:31.234Z,103054.91
2019-03-20T06:16:01.405Z,103059.01
2019-03-20T06:18:31.201Z,103069.32
2019-03-20T06:21:00.980Z,103063.14
2019-03-20T06:23:30.873Z,103052.84
2019-03-20T06:26:00.552Z,103052.02
2019-03-20T06:28:30.241Z,103054.36
2019-03-20T06:30:59.921Z,103051.02
2019-03-20T06:33:29.747Z,103059.98
2019-03-20T06:35:59.957Z,103057.03
2019-03-20T06:38:29.641Z,103060.73
2019-03-20T06:40:59.327Z,103067.05
2019-03-20T06:43:29.071Z,103069.42
2019-03-20T06:45:58.830Z,103075.41
2019-03-20T06:48:28.587Z,103069.36
2019-03-20T06:50:58.433Z,103071.70
2019-03-20T06:53:29.412Z,103076.84
2019-03-20T06:55:59.241Z,103078.63
2019-03-20T06:58:29.092Z,103078.72
2019-03-20T07:01:08.943Z,103081.72
2019-03-20T07:04:05.776Z,103083.77
2019-03-20T07:06:48.369Z,103083.77
2019-03-20T07:09:25.429Z,103083.41
2019-03-20T07:11:55.095Z,103081.06
2019-03-20T07:14:24.819Z,103081.89
2019-03-20T07:16:54.575Z,103084.13
2019-03-20T07:19:24.239Z,103084.77
2019-03-20T07:21:54.054Z,103082.66
2019-03-20T07:24:23.810Z,103086.53
2019-03-20T07:26:53.717Z,103086.45
2019-03-20T07:29:23.512Z,103086.45
2019-03-20T07:31:53.273Z,103080.16
2019-03-20T07:34:23.125Z,103081.80
2019-03-20T07:36:52.978Z,103088.92
2019-03-20T07:39:22.819Z,103087.38
2019-03-20T07:41:52.604Z,103085.45
2019-03-20T07:44:22.517Z,103087.17
2019-03-20T07:46:52.176Z,103092.95
2019-03-20T07:49:22.017Z,103091.63
2019-03-20T07:51:51.700Z,103093.34
2019-03-20T07:54:21.796Z,103094.50
2019-03-20T07:56:51.538Z,103094.30
2019-03-20T07:59:21.294Z,103096.92
2019-03-20T08:01:50.971Z,103093.75
2019-03-20T08:04:20.699Z,103085.47
2019-03-20T08:06:50.541Z,103089.42
2019-03-20T08:09:20.293Z,103094.42
2019-03-20T08:11:50.099Z,103101.31
2019-03-20T08:14:19.870Z,103102.00
2019-03-20T08:16:49.667Z,103095.04
2019-03-20T08:19:19.371Z,103097.63
2019-03-20T08:21:49.056Z,103095.03
2019-03-20T08:24:18.731Z,103093.55
2019-03-20T08:26:48.620Z,103097.78
2019-03-20T08:29:18.377Z,103107.05
2019-03-20T08:31:48.068Z,103111.89
2019-03-20T08:34:17.877Z,103126.95
2019-03-20T08:36:47.655Z,103127.05
2019-03-20T08:39:17.363Z,103139.13
2019-03-20T08:41:47.404Z,103150.39
2019-03-20T08:44:17.135Z,103157.65
2019-03-20T08:46:47.013Z,103149.45
2019-03-20T08:49:16.954Z,103140.23
2019-03-20T08:51:46.850Z,103141.72
2019-03-20T08:54:16.633Z,103135.53
2019-03-20T08:56:46.318Z,103141.69
2019-03-20T08:59:18.075Z,103149.60
2019-03-20T09:01:47.835Z,103150.14
2019-03-20T09:04:17.619Z,103143.56
2019-03-20T09:06:47.466Z,103146.97
2019-03-20T09:09:17.195Z,103146.52
2019-03-20T09:11:47.063Z,103158.22
2019-03-20T09:14:16.792Z,103166.08
2019-03-20T09:16:46.748Z,103163.69
2019-03-20T09:19:16.522Z,103167.55
2019-03-20T09:21:46.234Z,103166.89
2019-03-20T09:24:16.097Z,103171.25
2019-03-20T09:26:45.954Z,103164.74
2019-03-20T09:29:18.773Z,103166.59
2019-03-20T09:31:47.408Z,103166.23
2019-03-20T09:34:17.141Z,103171.25
2019-03-20T09:36:47.235Z,103170.79
2019-03-20T09:39:16.962Z,103169.97
2019-03-20T09:41:46.779Z,103163.39
2019-03-20T09:44:16.544Z,103166.28
2019-03-20T09:46:46.336Z,103154.93
2019-03-20T09:49:16.153Z,103165.42
2019-03-20T09:51:45.910Z,103159.47
2019-03-20T09:54:15.928Z,103168.09
2019-03-20T09:56:45.718Z,103165.25
2019-03-20T09:59:15.421Z,103167.30
2019-03-20T10:01:45.596Z,103165.16
2019-03-20T10:04:15.265Z,103169.76
2019-03-20T10:06:44.964Z,103174.66
2019-03-20T10:09:14.709Z,103162.85
2019-03-20T10:11:44.433Z,103169.13
2019-03-20T10:14:14.104Z,103171.09
2019-03-20T10:16:43.888Z,103166.22
2019-03-20T10:19:13.660Z,103166.77
2019-03-20T10:21:43.456Z,103169.98
2019-03-20T10:24:13.220Z,103161.51
2019-03-20T10:26:43.022Z,103161.03
2019-03-20T10:29:12.821Z,103168.72
2019-03-20T10:31:42.610Z,103172.86
2019-03-20T10:34:12.339Z,103166.53
2019-03-20T10:36:42.053Z,103165.13
2019-03-20T10:39:12.165Z,103166.58
2019-03-20T10:41:42.137Z,103164.38
2019-03-20T10:44:11.985Z,103163.98
2019-03-20T10:46:41.760Z,103162.01
2019-03-20T10:49:11.749Z,103157.72
2019-03-20T10:51:41.578Z,103158.73
2019-03-20T10:54:11.306Z,103152.59
2019-03-20T10:56:41.133Z,103155.34
2019-03-20T10:59:10.837Z,103153.70
2019-03-20T11:01:42.729Z,103152.56
2019-03-20T11:04:12.209Z,103153.27
2019-03-20T11:06:42.125Z,103153.16
2019-03-20T11:09:18.305Z,103145.78
2019-03-20T11:11:43.373Z,103148.34
2019-03-20T11:14:13.647Z,103153.88
2019-03-20T11:16:43.531Z,103159.32
2019-03-20T11:19:14.072Z,103154.94
2019-03-20T11:21:44.056Z,103150.80
2019-03-20T11:24:15.281Z,103152.89
2019-03-20T11:26:45.309Z,103153.70
2019-03-20T11:29:21.322Z,103156.14
2019-03-20T11:31:46.510Z,103157.07
2019-03-20T11:34:16.159Z,103154.04
2019-03-20T11:36:45.897Z,103153.30
2019-03-20T11:39:15.646Z,103160.06
2019-03-20T11:41:45.503Z,103160.91
2019-03-20T11:44:15.703Z,103158.63
2019-03-20T11:46:45.816Z,103153.05
2019-03-20T11:49:15.601Z,103156.81
2019-03-20T11:51:45.442Z,103153.13
2019-03-20T11:54:15.307Z,103152.19
2019-03-20T11:56:45.193Z,103141.80
2019-03-20T11:59:15.863Z,103135.71
2019-03-20T12:01:45.682Z,103140.29
2019-03-20T12:04:15.487Z,103143.37
2019-03-20T12:06:46.271Z,103144.02
2019-03-20T12:09:16.154Z,103149.34
2019-03-20T12:11:47.129Z,103147.41
2019-03-20T12:14:16.864Z,103149.49
2019-03-20T12:16:46.790Z,103151.63
2019-03-20T12:19:16.614Z,103154.92
2019-03-20T12:21:46.470Z,103158.19
2019-03-20T12:24:16.163Z,103155.83
2019-03-20T12:26:45.955Z,103157.73
2019-03-20T12:29:15.763Z,103150.66
2019-03-20T12:31:45.909Z,103154.78
2019-03-20T12:34:15.680Z,103147.73
2019-03-20T12:36:45.530Z,103144.02
2019-03-20T12:39:15.245Z,103139.16
2019-03-20T12:41:44.984Z,103145.22
2019-03-20T12:44:14.661Z,103145.53
2019-03-20T12:46:44.524Z,103155.59
2019-03-20T12:49:14.348Z,103142.23
2019-03-20T12:51:44.194Z,103142.64
2019-03-20T12:54:13.945Z,103136.47
2019-03-20T12:56:43.686Z,103144.80
2019-03-20T12:59:13.359Z,103140.12
2019-03-20T13:01:43.017Z,103138.51
2019-03-20T13:04:13.193Z,103141.86
2019-03-20T13:06:42.871Z,103136.80
2019-03-20T13:09:12.576Z,103140.77
2019-03-20T13:11:42.378Z,103134.02
2019-03-20T13:14:12.088Z,103133.25
2019-03-20T13:16:41.766Z,103137.91
2019-03-20T13:19:11.571Z,103128.28
2019-03-20T13:21:41.331Z,103125.20
2019-03-20T13:24:11.236Z,103127.84
2019-03-20T13:26:40.926Z,103136.72
2019-03-20T13:29:10.738Z,103133.87
2019-03-20T13:31:40.455Z,103130.23
2019-03-20T13:34:10.251Z,103131.58
2019-03-20T13:36:39.984Z,103125.77
2019-03-20T13:39:09.820Z,103126.05
2019-03-20T13:41:39.611Z,103126.88
2019-03-20T13:44:09.708Z,103129.05
2019-03-20T13:46:39.361Z,103132.53
2019-03-20T13:49:09.403Z,103135.21
2019-03-20T13:51:39.094Z,103126.88
2019-03-20T13:54:09.198Z,103130.32
2019-03-20T13:56:38.854Z,103131.73
2019-03-20T13:59:08.654Z,103126.92
2019-03-20T14:01:38.338Z,103135.66
2019-03-20T14:04:08.494Z,103141.91
2019-03-20T14:06:38.312Z,103135.75
2019-03-20T14:09:09.198Z,103145.63
2019-03-20T14:11:38.949Z,103145.81
2019-03-20T14:14:08.674Z,103141.66
2019-03-20T14:16:38.596Z,103144.86
2019-03-20T14:19:10.553Z,103141.34
2019-03-20T14:21:39.881Z,103144.03
2019-03-20T14:24:09.581Z,103143.31
2019-03-20T14:26:39.818Z,103144.11
2019-03-20T14:29:09.494Z,103139.77
2019-03-20T14:31:39.232Z,103137.73
2019-03-20T14:34:09.112Z,103139.80
2019-03-20T14:36:38.769Z,103135.27
2019-03-20T14:39:09.085Z,103143.33
2019-03-20T14:41:38.804Z,103138.03
2019-03-20T14:44:08.575Z,103130.67
2019-03-20T14:46:38.239Z,103133.82
2019-03-20T14:49:08.041Z,103128.27
2019-03-20T14:51:37.832Z,103128.86
2019-03-20T14:54:07.716Z,103131.34
2019-03-20T14:56:37.487Z,103129.75
2019-03-20T14:59:07.352Z,103131.92
2019-03-20T15:01:37.249Z,103127.09
2019-03-20T15:04:07.347Z,103126.55
2019-03-20T15:06:37.304Z,103127.00
2019-03-20T15:09:09.023Z,103120.23
2019-03-20T15:11:38.811Z,103125.03
2019-03-20T15:14:08.495Z,103119.68
2019-03-20T15:16:38.371Z,103117.28
2019-03-20T15:19:08.152Z,103116.44
2019-03-20T15:21:37.830Z,103120.34
2019-03-20T15:24:07.606Z,103120.09
2019-03-20T15:26:37.452Z,103115.92
2019-03-20T15:29:07.357Z,103114.87
2019-03-20T15:31:37.221Z,103111.92
2019-03-20T15:34:07.086Z,103109.49
2019-03-20T15:36:37.098Z,103111.84
2019-03-20T15:39:08.402Z,103106.67
2019-03-20T15:41:38.105Z,103102.08
2019-03-20T15:44:08.030Z,103099.67
2019-03-20T15:46:37.775Z,103102.65
2019-03-20T15:49:07.683Z,103102.84
2019-03-20T15:51:37.360Z,103100.06
2019-03-20T15:54:07.321Z,103104.11
2019-03-20T15:56:37.019Z,103109.62
2019-03-20T15:59:06.894Z,103105.94
2019-03-20T16:01:36.586Z,103108.86
2019-03-20T16:04:06.970Z,103108.72
2019-03-20T16:06:36.966Z,103109.73
2019-03-20T16:09:29.226Z,103112.92
2019-03-20T16:11:58.884Z,103108.12
2019-03-20T16:14:28.670Z,103110.13
2019-03-20T16:16:58.336Z,103116.43
2019-03-20T16:19:28.059Z,103111.63
2019-03-20T16:21:58.071Z,103111.99
2019-03-20T16:24:28.095Z,103111.08
2019-03-20T16:26:57.871Z,103112.62
2019-03-20T16:29:27.539Z,103109.66
2019-03-20T16:31:57.320Z,103110.45
2019-03-20T16:34:26.987Z,103111.08
2019-03-20T16:36:56.796Z,103109.22
2019-03-20T16:39:26.528Z,103115.31
2019-03-20T16:41:56.328Z,103114.82
2019-03-20T16:44:26.098Z,103116.43
2019-03-20T16:46:55.930Z,103112.72
2019-03-20T16:49:26.050Z,103114.30
2019-03-20T16:51:55.722Z,103113.63
2019-03-20T16:54:25.456Z,103112.91
2019-03-20T16:56:55.217Z,103112.88
2019-03-20T16:59:24.884Z,103106.77
2019-03-20T17:01:54.667Z,103115.09
2019-03-20T17:04:24.323Z,103110.06
2019-03-20T17:06:54.007Z,103110.27
2019-03-20T17:09:23.667Z,103114.70
2019-03-20T17:11:53.463Z,103116.97
2019-03-20T17:14:23.216Z,103124.20
2019-03-20T17:16:52.989Z,103124.64
2019-03-20T17:19:22.659Z,103128.00
2019-03-20T17:21:52.397Z,103134.81
2019-03-20T17:24:22.148Z,103125.22
2019-03-20T17:26:51.903Z,103128.91
2019-03-20T17:29:21.603Z,103134.02
2019-03-20T17:31:51.545Z,103131.55
2019-03-20T17:34:21.360Z,103135.13
2019-03-20T17:36:51.082Z,103136.34
2019-03-20T17:39:20.776Z,103131.36
2019-03-20T17:41:50.498Z,103135.25
2019-03-20T17:44:20.238Z,103132.58
2019-03-20T17:46:49.955Z,103127.47
2019-03-20T17:49:19.625Z,103136.27
2019-03-20T17:51:49.336Z,103137.37
2019-03-20T17:54:18.996Z,103132.66
2019-03-20T17:56:48.695Z,103137.12
2019-03-20T17:59:18.453Z,103136.48
2019-03-20T18:01:48.239Z,103139.98
2019-03-20T18:04:17.984Z,103138.77
2019-03-20T18:06:47.695Z,103140.72
2019-03-20T18:09:17.392Z,103141.69
2019-03-20T18:11:47.898Z,103146.28
2019-03-20T18:14:17.664Z,103146.41
2019-03-20T18:16:47.401Z,103150.20
2019-03-20T18:19:17.107Z,103159.88
2019-03-20T18:21:46.810Z,103156.48
2019-03-20T18:24:16.608Z,103155.89
2019-03-20T18:26:46.312Z,103156.98
2019-03-20T18:29:15.966Z,103162.44
2019-03-20T18:31:46.374Z,103162.13
2019-03-20T18:34:16.376Z,103164.58
2019-03-20T18:36:46.261Z,103168.67
2019-03-20T18:39:15.988Z,103165.79
2019-03-20T18:41:45.999Z,103170.19
2019-03-20T18:44:15.845Z,103170.05
2019-03-20T18:46:45.533Z,103168.64
2019-03-20T18:49:15.319Z,103175.24
2019-03-20T18:51:44.999Z,103178.56
2019-03-20T18:54:14.669Z,103183.75
2019-03-20T18:56:44.685Z,103180.11
2019-03-20T18:59:14.373Z,103187.45
2019-03-20T19:01:44.210Z,103184.95
2019-03-20T19:04:14.043Z,103183.53
2019-03-20T19:06:43.893Z,103187.02
2019-03-20T19:09:13.874Z,103193.14
2019-03-20T19:11:44.115Z,103195.98
2019-03-20T19:14:13.914Z,103198.86
2019-03-20T19:16:43.760Z,103202.09
2019-03-20T19:19:13.426Z,103201.91
2019-03-20T19:21:43.437Z,103199.75
2019-03-20T19:24:13.097Z,103208.84
2019-03-20T19:26:42.851Z,103209.58
2019-03-20T19:29:12.557Z,103215.12
2019-03-20T19:31:42.370Z,103215.41
2019-03-20T19:34:12.024Z,103215.64
2019-03-20T19:36:41.778Z,103222.08
2019-03-20T19:39:11.571Z,103216.18
2019-03-20T19:41:41.332Z,103212.56
2019-03-20T19:44:11.033Z,103221.56
2019-03-20T19:46:40.850Z,103224.09
2019-03-20T19:49:10.585Z,103219.37
2019-03-20T19:51:40.307Z,103223.93
2019-03-20T19:54:10.162Z,103228.09
2019-03-20T19:56:39.841Z,103224.09
2019-03-20T19:59:09.592Z,103222.45
2019-03-20T20:01:39.237Z,103227.78
2019-03-20T20:04:08.930Z,103230.16
2019-03-20T20:06:38.689Z,103222.16
2019-03-20T20:09:09.001Z,103233.33
2019-03-20T20:11:38.825Z,103231.48
2019-03-20T20:14:08.594Z,103229.56
2019-03-20T20:16:38.326Z,103224.96
2019-03-20T20:19:08.107Z,103227.06
2019-03-20T20:21:37.802Z,103222.47
2019-03-20T20:24:07.516Z,103219.20
2019-03-20T20:26:37.204Z,103225.55
2019-03-20T20:29:06.877Z,103228.75
2019-03-20T20:31:36.600Z,103222.73
2019-03-20T20:34:06.431Z,103230.15
2019-03-20T20:36:36.102Z,103233.45
2019-03-20T20:39:07.846Z,103225.08
2019-03-20T20:41:37.499Z,103228.63
2019-03-20T20:44:07.188Z,103225.81
2019-03-20T20:46:36.931Z,103224.39
2019-03-20T20:49:06.812Z,103220.61
2019-03-20T20:51:36.504Z,103219.84
2019-03-20T20:54:06.359Z,103223.67
2019-03-20T20:56:36.109Z,103223.58
2019-03-20T20:59:05.909Z,103219.33
2019-03-20T21:01:35.756Z,103218.41
2019-03-20T21:04:05.428Z,103220.05
2019-03-20T21:06:35.131Z,103216.66
2019-03-20T21:09:07.339Z,103210.25
2019-03-20T21:11:37.096Z,103210.19
2019-03-20T21:14:07.076Z,103218.00
2019-03-20T21:16:36.777Z,103215.78
2019-03-20T21:19:36.169Z,103218.12
2019-03-20T21:22:34.620Z,103216.58
2019-03-20T21:25:05.013Z,103214.35
2019-03-20T21:28:14.943Z,103219.50
2019-03-20T21:30:49.500Z,103216.73
2019-03-20T21:34:01.176Z,103216.28
2019-03-20T21:37:25.866Z,103209.84
2019-03-20T21:39:55.540Z,103212.45
2019-03-20T21:43:11.957Z,103218.49
2019-03-20T21:46:05.082Z,103213.44
2019-03-20T21:48:34.751Z,103215.23
2019-03-20T21:51:18.641Z,103217.28
2019-03-20T21:54:11.072Z,103217.17
2019-03-20T21:57:15.821Z,103216.81
2019-03-20T22:00:04.590Z,103224.50
2019-03-20T22:02:45.295Z,103223.45
2019-03-20T22:05:33.527Z,103233.69
2019-03-20T22:08:03.295Z,103227.05
2019-03-20T22:11:19.076Z,103220.80
2019-03-20T22:13:53.343Z,103213.58
2019-03-20T22:17:05.102Z,103226.77
2019-03-20T22:19:57.041Z,103223.09
2019-03-20T22:23:03.910Z,103224.42
2019-03-20T22:25:55.717Z,103224.13
2019-03-20T22:29:11.258Z,103224.56
2019-03-20T22:31:45.586Z,103222.30
2019-03-20T22:34:57.769Z,103220.50
2019-03-20T22:37:27.520Z,103223.05
2019-03-20T22:40:16.904Z,103215.20
2019-03-20T22:43:06.287Z,103219.42
2019-03-20T22:46:14.185Z,103212.68
2019-03-20T22:49:38.174Z,103217.09
2019-03-20T22:52:34.715Z,103223.73
2019-03-20T22:55:37.036Z,103214.44
2019-03-20T22:58:13.713Z,103216.80
2019-03-20T23:00:45.108Z,103217.23
2019-03-20T23:03:30.536Z,103224.09
2019-03-20T23:06:00.312Z,103227.25
2019-03-20T23:08:30.013Z,103224.49
2019-03-20T23:10:59.784Z,103220.80
2019-03-20T23:13:40.798Z,103222.95
2019-03-20T23:16:00.929Z,103229.19
2019-03-20T23:18:30.562Z,103226.32
2019-03-20T23:21:00.331Z,103226.32
2019-03-20T23:23:30.303Z,103230.30
2019-03-20T23:25:59.939Z,103226.74
2019-03-20T23:28:29.621Z,103222.56
2019-03-20T23:30:59.286Z,103226.02
2019-03-20T23:33:28.954Z,103230.83
2019-03-20T23:35:58.718Z,103236.64
2019-03-20T23:38:28.734Z,103230.50
2019-03-20T23:40:58.437Z,103229.00
2019-03-20T23:43:28.148Z,103225.61
2019-03-20T23:45:57.816Z,103219.39
2019-03-20T23:48:41.019Z,103223.69
2019-03-20T23:51:18.770Z,103220.72
2019-03-20T23:53:51.375Z,103224.70
2019-03-20T23:56:21.423Z,103218.77
2019-03-20T23:58:51.189Z,103221.84
